Time;durP1;ratioP1;P1;durP2;ratioP2;P2;SDS_P1;SDS_P2;PMS_P1;PMS_P2;Temp;Humidity;BMP_temperature;BMP_pressure;BME280_temperature;BME280_humidity;BME280_pressure;Samples;Min_cycle;Max_cycle;Signal;HPM_P1;HPM_P2
2023/02/08 00:00:22;;;;;;;140.25;61.45;;;;;;;;;;1025758;28;21144;-73
2023/02/08 00:00:52;;;;;;;125.63;60.58;;;;;;;;;;1025751;28;20065;-73
2023/02/08 00:01:24;;;;;;;144.25;63.15;;;;;;;;;;1025778;28;20022;-73
2023/02/08 00:01:54;;;;;;;132.88;59.88;;;;;;;;;;1025356;28;20129;-73
2023/02/08 00:02:24;;;;;;;140.32;62.33;;;;;;;;;;1025417;28;20486;-73
2023/02/08 00:02:55;;;;;;;129.63;61.33;;;;;;;;;;1025476;28;20034;-73
2023/02/08 00:03:27;;;;;;;136.02;58.00;;;;;;;;;;1025467;28;20570;-73
2023/02/08 00:03:58;;;;;;;130.10;56.25;;;;;;;;;;1024900;28;20054;-73
2023/02/08 00:04:28;;;;;;;115.85;53.15;;;;;;;;;;1025746;28;20122;-73
2023/02/08 00:04:58;;;;;;;118.65;56.25;;;;;;;;;;1025855;28;20015;-72
2023/02/08 00:05:29;;;;;;;116.82;53.78;;;;;;;;;;1025686;28;20501;-72
2023/02/08 00:05:59;;;;;;;129.02;53.78;;;;;;;;;;1026236;28;20033;-73
2023/02/08 00:06:30;;;;;;;123.03;54.10;;;;;;;;;;1025306;28;20089;-73
2023/02/08 00:07:00;;;;;;;92.80;44.80;;;;;;;;;;1025533;28;20019;-73
2023/02/08 00:07:31;;;;;;;95.68;45.90;;;;;;;;;;1025342;28;20027;-73
2023/02/08 00:08:01;;;;;;;116.13;50.85;;;;;;;;;;1025674;28;20019;-73
2023/02/08 00:08:33;;;;;;;89.20;46.00;;;;;;;;;;1023266;29;20481;-73
2023/02/08 00:09:03;;;;;;;101.68;42.70;;;;;;;;;;1023508;29;20034;-73
2023/02/08 00:09:34;;;;;;;98.10;45.35;;;;;;;;;;1019527;29;20132;-73
2023/02/08 00:10:05;;;;;;;109.90;46.58;;;;;;;;;;1023470;29;20031;-73
2023/02/08 00:10:36;;;;;;;85.55;43.42;;;;;;;;;;1024773;28;20074;-73
2023/02/08 00:11:06;;;;;;;102.97;46.92;;;;;;;;;;1025731;28;20508;-73
2023/02/08 00:11:37;;;;;;;109.97;47.22;;;;;;;;;;1023019;29;20557;-73
2023/02/08 00:12:07;;;;;;;103.90;45.72;;;;;;;;;;1021145;29;20590;-73
2023/02/08 00:12:38;;;;;;;109.72;44.33;;;;;;;;;;1021766;29;20110;-73
2023/02/08 00:13:08;;;;;;;96.25;45.13;;;;;;;;;;1021676;29;20411;-73
2023/02/08 00:13:40;;;;;;;106.22;45.50;;;;;;;;;;1025334;28;20018;-73
2023/02/08 00:14:10;;;;;;;106.90;45.08;;;;;;;;;;1025874;28;20102;-73
2023/02/08 00:14:41;;;;;;;104.95;46.17;;;;;;;;;;1025762;28;20023;-73
2023/02/08 00:15:11;;;;;;;100.75;49.90;;;;;;;;;;1026038;28;20031;-73
2023/02/08 00:15:42;;;;;;;92.60;44.25;;;;;;;;;;1025690;28;20019;-73
2023/02/08 00:16:13;;;;;;;100.90;41.67;;;;;;;;;;1025805;28;20031;-73
2023/02/08 00:16:44;;;;;;;93.05;45.42;;;;;;;;;;1025361;28;20019;-73
2023/02/08 00:17:14;;;;;;;108.95;47.67;;;;;;;;;;1025285;28;20098;-73
2023/02/08 00:17:45;;;;;;;93.68;45.33;;;;;;;;;;1025597;28;20053;-73
2023/02/08 00:18:15;;;;;;;99.53;42.47;;;;;;;;;;1025354;28;20426;-73
2023/02/08 00:18:45;;;;;;;83.35;39.22;;;;;;;;;;1025381;28;20018;-73
2023/02/08 00:19:16;;;;;;;97.85;40.80;;;;;;;;;;1025480;28;20078;-73
2023/02/08 00:19:46;;;;;;;87.63;45.03;;;;;;;;;;1025457;28;20109;-73
2023/02/08 00:20:17;;;;;;;77.18;40.65;;;;;;;;;;1025481;28;20038;-73
2023/02/08 00:20:48;;;;;;;89.32;40.30;;;;;;;;;;1025686;28;20618;-73
2023/02/08 00:21:18;;;;;;;84.70;39.15;;;;;;;;;;1025705;28;20031;-73
2023/02/08 00:21:49;;;;;;;68.55;37.53;;;;;;;;;;1026015;28;20027;-73
2023/02/08 00:22:19;;;;;;;82.53;40.28;;;;;;;;;;1025214;28;20031;-73
2023/02/08 00:22:50;;;;;;;88.05;39.53;;;;;;;;;;1025460;28;20074;-73
2023/02/08 00:23:20;;;;;;;91.32;41.22;;;;;;;;;;1025460;28;20386;-73
2023/02/08 00:23:51;;;;;;;95.00;41.20;;;;;;;;;;1025436;28;20026;-73
2023/02/08 00:24:21;;;;;;;76.90;37.42;;;;;;;;;;1025688;28;20082;-73
2023/02/08 00:24:51;;;;;;;81.47;40.63;;;;;;;;;;1025081;28;20037;-73
2023/02/08 00:25:22;;;;;;;77.35;40.45;;;;;;;;;;1025177;28;20089;-73
2023/02/08 00:25:52;;;;;;;99.88;41.35;;;;;;;;;;1024996;28;20050;-73
2023/02/08 00:26:23;;;;;;;79.30;41.50;;;;;;;;;;1024695;28;20023;-73
2023/02/08 00:26:53;;;;;;;89.68;44.03;;;;;;;;;;1024719;28;20027;-73
2023/02/08 00:27:24;;;;;;;98.07;44.08;;;;;;;;;;1025317;28;20027;-73
2023/02/08 00:27:54;;;;;;;93.72;42.75;;;;;;;;;;1025413;28;20018;-73
2023/02/08 00:28:25;;;;;;;99.88;43.40;;;;;;;;;;1025307;28;20026;-73
2023/02/08 00:28:56;;;;;;;84.35;42.25;;;;;;;;;;1025419;28;20023;-73
2023/02/08 00:29:26;;;;;;;85.45;39.45;;;;;;;;;;1025552;28;20019;-73
2023/02/08 00:29:57;;;;;;;88.13;41.67;;;;;;;;;;1025357;28;20034;-73
2023/02/08 00:30:27;;;;;;;92.88;40.70;;;;;;;;;;1025153;28;20110;-73
2023/02/08 00:30:57;;;;;;;87.35;42.25;;;;;;;;;;1025456;28;20098;-73
2023/02/08 00:31:28;;;;;;;84.38;43.03;;;;;;;;;;1025140;28;20070;-73
2023/02/08 00:31:59;;;;;;;91.65;42.80;;;;;;;;;;1025469;28;20031;-73
2023/02/08 00:32:29;;;;;;;93.18;44.47;;;;;;;;;;1025264;28;20016;-73
2023/02/08 00:33:00;;;;;;;84.93;40.85;;;;;;;;;;1025415;28;20023;-73
2023/02/08 00:33:30;;;;;;;87.07;42.35;;;;;;;;;;1025137;28;20085;-73
2023/02/08 00:34:01;;;;;;;81.50;43.22;;;;;;;;;;1025627;28;20550;-73
2023/02/08 00:34:31;;;;;;;93.88;44.15;;;;;;;;;;1025488;28;20077;-73
2023/02/08 00:35:02;;;;;;;73.60;40.65;;;;;;;;;;1025271;28;20030;-73
2023/02/08 00:35:32;;;;;;;93.90;41.60;;;;;;;;;;1025265;28;20134;-73
2023/02/08 00:36:04;;;;;;;96.20;43.92;;;;;;;;;;1025604;28;20030;-73
2023/02/08 00:36:35;;;;;;;80.57;40.55;;;;;;;;;;1025033;28;20490;-73
2023/02/08 00:37:05;;;;;;;87.05;40.88;;;;;;;;;;1025532;28;20043;-73
2023/02/08 00:37:36;;;;;;;81.22;42.28;;;;;;;;;;1025668;28;20034;-73
2023/02/08 00:38:06;;;;;;;75.13;39.42;;;;;;;;;;1025768;28;20035;-72
2023/02/08 00:38:37;;;;;;;87.28;38.75;;;;;;;;;;1024619;28;20082;-72
2023/02/08 00:39:07;;;;;;;91.55;42.45;;;;;;;;;;1025783;28;20022;-72
2023/02/08 00:39:38;;;;;;;86.13;39.75;;;;;;;;;;1025632;28;20034;-73
2023/02/08 00:40:09;;;;;;;76.25;39.03;;;;;;;;;;1025442;28;20026;-73
2023/02/08 00:40:40;;;;;;;90.55;40.90;;;;;;;;;;1025197;28;20110;-73
2023/02/08 00:41:11;;;;;;;81.80;38.92;;;;;;;;;;1025377;28;20038;-73
2023/02/08 00:41:41;;;;;;;73.13;36.20;;;;;;;;;;1025263;28;20019;-73
2023/02/08 00:42:11;;;;;;;85.47;39.90;;;;;;;;;;1025541;28;20045;-73
2023/02/08 00:42:42;;;;;;;83.15;40.45;;;;;;;;;;1025246;28;20022;-73
2023/02/08 00:43:13;;;;;;;96.28;41.13;;;;;;;;;;1025423;28;20027;-73
2023/02/08 00:43:43;;;;;;;75.22;38.25;;;;;;;;;;1025477;28;20545;-73
2023/02/08 00:44:13;;;;;;;75.88;37.78;;;;;;;;;;1025289;28;20027;-73
2023/02/08 00:44:44;;;;;;;70.10;35.58;;;;;;;;;;1026365;28;20493;-73
2023/02/08 00:45:14;;;;;;;82.47;37.65;;;;;;;;;;1024023;28;20035;-73
2023/02/08 00:45:45;;;;;;;78.03;36.58;;;;;;;;;;1025439;28;20037;-73
2023/02/08 00:46:15;;;;;;;89.80;43.63;;;;;;;;;;1025546;28;20035;-73
2023/02/08 00:46:46;;;;;;;83.57;37.13;;;;;;;;;;1025620;28;20065;-73
2023/02/08 00:47:16;;;;;;;73.65;37.45;;;;;;;;;;1025213;28;20449;-73
2023/02/08 00:47:47;;;;;;;81.15;37.17;;;;;;;;;;1025696;28;20027;-72
2023/02/08 00:48:17;;;;;;;78.25;34.83;;;;;;;;;;1025720;28;20030;-73
2023/02/08 00:48:48;;;;;;;82.05;37.97;;;;;;;;;;1024482;28;20073;-73
2023/02/08 00:49:18;;;;;;;79.05;37.17;;;;;;;;;;1025588;28;20605;-73
2023/02/08 00:49:49;;;;;;;71.55;38.22;;;;;;;;;;1025821;28;20043;-73
2023/02/08 00:50:19;;;;;;;83.30;39.13;;;;;;;;;;1025581;28;20023;-73
2023/02/08 00:50:57;;;;;;;76.00;38.00;;;;;;;;;;1025573;28;20466;-73
2023/02/08 00:51:27;;;;;;;76.32;36.50;;;;;;;;;;1025025;28;20122;-73
2023/02/08 00:51:58;;;;;;;71.38;34.83;;;;;;;;;;1024960;28;20439;-73
2023/02/08 00:52:28;;;;;;;80.82;36.92;;;;;;;;;;1024553;28;20391;-73
2023/02/08 00:53:00;;;;;;;74.25;37.05;;;;;;;;;;1024775;28;20034;-73
2023/02/08 00:53:33;;;;;;;71.82;34.92;;;;;;;;;;1024852;28;20026;-73
2023/02/08 00:54:04;;;;;;;80.47;39.03;;;;;;;;;;1024957;28;20394;-73
2023/02/08 00:54:34;;;;;;;83.22;38.55;;;;;;;;;;1024367;28;20098;-73
2023/02/08 00:55:05;;;;;;;93.85;38.33;;;;;;;;;;1024900;28;20030;-73
2023/02/08 00:55:35;;;;;;;76.80;34.92;;;;;;;;;;1024457;28;20146;-73
2023/02/08 00:56:07;;;;;;;88.00;39.58;;;;;;;;;;1025309;28;20113;-73
2023/02/08 00:56:37;;;;;;;88.72;38.15;;;;;;;;;;1021289;29;20699;-73
2023/02/08 00:57:08;;;;;;;87.43;38.95;;;;;;;;;;1021464;29;20118;-73
2023/02/08 00:57:38;;;;;;;91.03;40.70;;;;;;;;;;1021658;29;20593;-73
2023/02/08 00:58:10;;;;;;;78.38;37.42;;;;;;;;;;1025509;28;20602;-73
2023/02/08 00:58:41;;;;;;;70.43;35.15;;;;;;;;;;1025451;28;20025;-73
2023/02/08 00:59:12;;;;;;;79.70;37.92;;;;;;;;;;1025883;28;20023;-73
2023/02/08 00:59:42;;;;;;;64.63;31.00;;;;;;;;;;1025333;28;20030;-73
2023/02/08 01:00:13;;;;;;;59.95;29.25;;;;;;;;;;1025402;28;20102;-73
2023/02/08 01:00:43;;;;;;;82.30;36.83;;;;;;;;;;1025345;28;20034;-73
2023/02/08 01:01:14;;;;;;;82.97;36.97;;;;;;;;;;1024973;28;20018;-73
2023/02/08 01:01:44;;;;;;;74.70;36.10;;;;;;;;;;1025464;28;20467;-73
2023/02/08 01:02:15;;;;;;;76.30;35.53;;;;;;;;;;1021213;28;20055;-73
2023/02/08 01:02:45;;;;;;;77.75;36.25;;;;;;;;;;1022280;28;20054;-72
2023/02/08 01:03:16;;;;;;;90.05;37.50;;;;;;;;;;1025591;28;20582;-72
2023/02/08 01:03:47;;;;;;;83.93;38.65;;;;;;;;;;1024466;28;20151;-72
2023/02/08 01:04:18;;;;;;;78.32;35.58;;;;;;;;;;1025295;28;20026;-72
2023/02/08 01:04:48;;;;;;;88.68;38.85;;;;;;;;;;1025153;28;20074;-72
2023/02/08 01:05:19;;;;;;;72.45;34.15;;;;;;;;;;1025264;28;20029;-72
2023/02/08 01:05:49;;;;;;;71.15;36.33;;;;;;;;;;1023448;28;20028;-72
2023/02/08 01:06:20;;;;;;;77.28;34.85;;;;;;;;;;1025809;28;20082;-72
2023/02/08 01:06:50;;;;;;;83.85;37.08;;;;;;;;;;1024157;28;20125;-72
2023/02/08 01:07:21;;;;;;;72.50;32.53;;;;;;;;;;1025276;28;20026;-72
2023/02/08 01:07:51;;;;;;;81.85;37.65;;;;;;;;;;1024970;28;20034;-72
2023/02/08 01:08:22;;;;;;;76.35;38.58;;;;;;;;;;1025625;28;20393;-73
2023/02/08 01:08:52;;;;;;;75.82;36.92;;;;;;;;;;1027016;28;20038;-73
2023/02/08 01:09:23;;;;;;;68.93;35.80;;;;;;;;;;1026987;28;20019;-73
2023/02/08 01:09:54;;;;;;;72.78;36.13;;;;;;;;;;1022851;29;20116;-73
2023/02/08 01:10:24;;;;;;;81.47;35.60;;;;;;;;;;1018826;29;20526;-73
2023/02/08 01:11:09;;;;;;;72.60;34.50;;;;;;;;;;1022299;29;20117;-73
2023/02/08 01:11:39;;;;;;;83.93;35.80;;;;;;;;;;1022428;29;20023;-73
2023/02/08 01:12:10;;;;;;;79.75;34.95;;;;;;;;;;1023105;28;20121;-73
2023/02/08 01:12:40;;;;;;;71.20;34.50;;;;;;;;;;1025193;28;20603;-72
2023/02/08 01:13:11;;;;;;;73.88;32.33;;;;;;;;;;1025595;28;20089;-72
2023/02/08 01:13:41;;;;;;;85.97;33.47;;;;;;;;;;1025045;28;20110;-72
2023/02/08 01:14:12;;;;;;;79.63;33.10;;;;;;;;;;1027605;28;20015;-73
2023/02/08 01:14:42;;;;;;;75.05;35.63;;;;;;;;;;1027720;28;20089;-73
2023/02/08 01:15:12;;;;;;;68.22;31.60;;;;;;;;;;1028490;28;20025;-73
2023/02/08 01:15:43;;;;;;;74.63;33.63;;;;;;;;;;1028510;28;20030;-73
2023/02/08 01:16:15;;;;;;;66.13;33.35;;;;;;;;;;1026077;28;20106;-73
2023/02/08 01:16:45;;;;;;;75.93;34.33;;;;;;;;;;1026199;28;20041;-73
2023/02/08 01:17:16;;;;;;;67.72;33.90;;;;;;;;;;1026198;28;20070;-73
2023/02/08 01:17:46;;;;;;;68.43;33.20;;;;;;;;;;1025690;28;20380;-73
2023/02/08 01:18:16;;;;;;;68.50;34.35;;;;;;;;;;1024885;28;20101;-73
2023/02/08 01:18:49;;;;;;;65.57;33.25;;;;;;;;;;1025692;28;20015;-73
2023/02/08 01:19:19;;;;;;;63.92;34.13;;;;;;;;;;1024019;28;20475;-73
2023/02/08 01:19:50;;;;;;;69.53;30.98;;;;;;;;;;1025446;28;20034;-73
2023/02/08 01:20:20;;;;;;;53.17;24.90;;;;;;;;;;1025737;28;20384;-73
2023/02/08 01:20:51;;;;;;;50.72;25.95;;;;;;;;;;1023688;28;20027;-73
2023/02/08 01:21:26;;;;;;;52.95;27.45;;;;;;;;;;1019148;29;20451;-73
2023/02/08 01:21:57;;;;;;;61.72;30.00;;;;;;;;;;1021472;28;20515;-73
2023/02/08 01:22:28;;;;;;;72.35;30.23;;;;;;;;;;1017845;29;20028;-73
2023/02/08 01:22:58;;;;;;;53.20;26.10;;;;;;;;;;1022518;28;20468;-73
2023/02/08 01:23:31;;;;;;;52.70;29.80;;;;;;;;;;1025444;28;20015;-73
2023/02/08 01:24:03;;;;;;;59.88;31.42;;;;;;;;;;1027503;28;20050;-73
2023/02/08 01:24:33;;;;;;;55.67;30.20;;;;;;;;;;1023931;28;20030;-73
2023/02/08 01:25:10;;;;;;;71.13;33.83;;;;;;;;;;1023181;28;20542;-72
2023/02/08 01:25:41;;;;;;;62.67;30.48;;;;;;;;;;1024619;28;20154;-72
2023/02/08 01:26:12;;;;;;;71.40;30.77;;;;;;;;;;1026227;28;20111;-73
2023/02/08 01:26:43;;;;;;;66.57;31.83;;;;;;;;;;1025607;28;20039;-73
2023/02/08 01:27:13;;;;;;;49.60;26.52;;;;;;;;;;1022217;28;20046;-73
2023/02/08 01:27:44;;;;;;;54.17;27.73;;;;;;;;;;1025361;28;20019;-73
2023/02/08 01:28:14;;;;;;;63.13;31.27;;;;;;;;;;1026304;28;20019;-73
2023/02/08 01:28:45;;;;;;;53.83;30.33;;;;;;;;;;1026096;28;20023;-73
2023/02/08 01:29:16;;;;;;;55.22;28.88;;;;;;;;;;1024476;28;20716;-73
2023/02/08 01:29:47;;;;;;;53.95;27.70;;;;;;;;;;1023060;28;20027;-73
2023/02/08 01:30:17;;;;;;;58.30;27.35;;;;;;;;;;1020315;28;20046;-73
2023/02/08 01:30:48;;;;;;;59.90;26.98;;;;;;;;;;1020441;28;20363;-73
2023/02/08 01:31:19;;;;;;;46.53;23.60;;;;;;;;;;1021674;28;20038;-73
2023/02/08 01:31:50;;;;;;;45.65;24.27;;;;;;;;;;1023812;28;20027;-73
2023/02/08 01:32:20;;;;;;;47.70;23.85;;;;;;;;;;1023628;28;20050;-73
2023/02/08 01:32:51;;;;;;;43.17;22.02;;;;;;;;;;1024040;28;20086;-72
2023/02/08 01:33:21;;;;;;;42.47;25.13;;;;;;;;;;1022406;28;20023;-72
2023/02/08 01:33:52;;;;;;;36.28;20.33;;;;;;;;;;1017799;29;20039;-72
2023/02/08 01:34:22;;;;;;;47.25;24.83;;;;;;;;;;1017826;29;20349;-73
2023/02/08 01:34:53;;;;;;;46.88;24.63;;;;;;;;;;1017004;29;20181;-73
2023/02/08 01:35:24;;;;;;;63.60;24.80;;;;;;;;;;1021705;28;20143;-73
2023/02/08 01:35:54;;;;;;;39.17;21.80;;;;;;;;;;1024078;28;20034;-73
2023/02/08 01:36:25;;;;;;;39.25;19.98;;;;;;;;;;1024318;28;20050;-73
2023/02/08 01:36:57;;;;;;;37.40;19.42;;;;;;;;;;1022644;28;20583;-73
2023/02/08 01:37:31;;;;;;;34.53;19.73;;;;;;;;;;1024681;28;20030;-73
2023/02/08 01:38:05;;;;;;;31.75;18.48;;;;;;;;;;1024072;28;20023;-73
2023/02/08 01:38:37;;;;;;;40.55;19.83;;;;;;;;;;1021326;29;20438;-73
2023/02/08 01:39:09;;;;;;;38.28;18.52;;;;;;;;;;1020275;29;20024;-73
2023/02/08 01:39:42;;;;;;;49.10;20.30;;;;;;;;;;1020200;29;20023;-73
2023/02/08 01:40:13;;;;;;;56.25;27.42;;;;;;;;;;1021969;29;20130;-73
2023/02/08 01:40:44;;;;;;;73.75;33.60;;;;;;;;;;1020662;29;20637;-74
2023/02/08 01:41:17;;;;;;;49.97;23.23;;;;;;;;;;1019474;29;20070;-74
2023/02/08 01:41:48;;;;;;;69.88;30.05;;;;;;;;;;1018961;29;20031;-73
2023/02/08 01:42:19;;;;;;;42.75;22.83;;;;;;;;;;1022611;28;20498;-74
2023/02/08 01:42:50;;;;;;;39.20;21.40;;;;;;;;;;1023065;28;21275;-73
2023/02/08 01:43:25;;;;;;;50.67;24.17;;;;;;;;;;1026408;28;20045;-73
2023/02/08 01:44:00;;;;;;;54.25;25.40;;;;;;;;;;1026427;28;20360;-73
2023/02/08 01:44:49;;;;;;;54.40;24.40;;;;;;;;;;1025488;28;20046;-74
2023/02/08 01:45:26;;;;;;;54.88;25.73;;;;;;;;;;1026709;28;20432;-74
2023/02/08 01:45:57;;;;;;;52.25;26.52;;;;;;;;;;1024242;28;20076;-74
2023/02/08 01:46:28;;;;;;;56.03;27.52;;;;;;;;;;1026417;28;20107;-73
2023/02/08 01:46:58;;;;;;;62.80;27.00;;;;;;;;;;1024255;28;20054;-73
2023/02/08 01:47:29;;;;;;;58.35;25.92;;;;;;;;;;1026183;28;20046;-73
2023/02/08 01:48:03;;;;;;;59.72;29.17;;;;;;;;;;1022500;28;20433;-73
2023/02/08 01:48:36;;;;;;;78.85;33.85;;;;;;;;;;1027367;28;20491;-73
2023/02/08 01:49:12;;;;;;;70.75;32.80;;;;;;;;;;1024245;28;20656;-73
2023/02/08 01:49:42;;;;;;;86.25;32.92;;;;;;;;;;1025140;28;20479;-73
2023/02/08 01:50:13;;;;;;;84.50;34.90;;;;;;;;;;1025966;28;20026;-74
2023/02/08 01:50:52;;;;;;;95.68;36.97;;;;;;;;;;1025982;28;20023;-74
2023/02/08 01:51:28;;;;;;;89.72;38.15;;;;;;;;;;1020133;29;20035;-73
2023/02/08 01:52:09;;;;;;;75.93;34.20;;;;;;;;;;1022452;28;20388;-73
2023/02/08 01:52:41;;;;;;;74.72;33.70;;;;;;;;;;1023945;28;20181;-73
2023/02/08 01:53:11;;;;;;;69.65;29.92;;;;;;;;;;1028976;28;20022;-74
2023/02/08 01:53:42;;;;;;;74.28;31.70;;;;;;;;;;1027750;28;20042;-74
2023/02/08 01:54:15;;;;;;;72.20;30.58;;;;;;;;;;1029740;28;20022;-74
2023/02/08 01:54:51;;;;;;;74.10;33.35;;;;;;;;;;1027368;28;20026;-74
2023/02/08 01:55:26;;;;;;;80.55;35.55;;;;;;;;;;1026789;28;20576;-74
2023/02/08 01:56:02;;;;;;;80.72;34.78;;;;;;;;;;1026916;28;20030;-73
2023/02/08 01:56:34;;;;;;;67.82;32.58;;;;;;;;;;1026717;28;20101;-74
2023/02/08 01:57:05;;;;;;;77.85;33.92;;;;;;;;;;1026586;28;20030;-74
2023/02/08 01:57:35;;;;;;;62.55;31.17;;;;;;;;;;1025484;28;20035;-73
2023/02/08 01:58:11;;;;;;;74.45;32.13;;;;;;;;;;1022287;29;20032;-74
2023/02/08 01:58:43;;;;;;;78.53;33.22;;;;;;;;;;1022521;29;20027;-73
2023/02/08 01:59:20;;;;;;;76.38;34.50;;;;;;;;;;1024189;28;20035;-73
2023/02/08 01:59:57;;;;;;;80.68;36.00;;;;;;;;;;1029326;28;20027;-73
2023/02/08 02:00:28;;;;;;;95.70;39.63;;;;;;;;;;1030649;28;20033;-73
2023/02/08 02:00:59;;;;;;;97.03;41.72;;;;;;;;;;1026158;28;20030;-74
2023/02/08 02:01:30;;;;;;;92.72;40.55;;;;;;;;;;1026616;28;20099;-73
2023/02/08 02:02:02;;;;;;;83.72;36.30;;;;;;;;;;1027158;28;20226;-73
2023/02/08 02:02:34;;;;;;;71.75;36.50;;;;;;;;;;1026155;28;20066;-73
2023/02/08 02:03:05;;;;;;;78.97;35.92;;;;;;;;;;1024898;28;20034;-74
2023/02/08 02:03:35;;;;;;;80.18;35.83;;;;;;;;;;1019435;29;20050;-74
2023/02/08 02:04:14;;;;;;;75.78;36.17;;;;;;;;;;1021678;29;20024;-73
2023/02/08 02:04:55;;;;;;;83.18;38.47;;;;;;;;;;1023077;29;20028;-73
2023/02/08 02:05:37;;;;;;;85.82;37.08;;;;;;;;;;1026896;28;20769;-73
2023/02/08 02:06:10;;;;;;;75.00;34.55;;;;;;;;;;1027105;28;20039;-73
2023/02/08 02:06:47;;;;;;;78.07;35.70;;;;;;;;;;1024236;28;20031;-72
2023/02/08 02:07:19;;;;;;;80.32;37.88;;;;;;;;;;1025323;28;20030;-73
2023/02/08 02:07:50;;;;;;;75.65;35.03;;;;;;;;;;1027901;28;20027;-73
2023/02/08 02:08:21;;;;;;;88.57;37.80;;;;;;;;;;1027954;28;20031;-73
2023/02/08 02:09:18;;;;;;;92.90;40.15;;;;;;;;;;1030553;28;20042;-74
2023/02/08 02:09:52;;;;;;;86.93;37.53;;;;;;;;;;1021838;29;20039;-73
2023/02/08 02:10:29;;;;;;;89.70;40.30;;;;;;;;;;1022564;28;20916;-74
2023/02/08 02:11:00;;;;;;;86.53;38.63;;;;;;;;;;1027912;28;20022;-75
2023/02/08 02:11:30;;;;;;;97.18;45.40;;;;;;;;;;1025176;28;20020;-74
2023/02/08 02:12:01;;;;;;;126.82;45.85;;;;;;;;;;1024375;28;20047;-73
2023/02/08 02:12:33;;;;;;;85.22;40.17;;;;;;;;;;1027907;28;20026;-73
2023/02/08 02:13:12;;;;;;;103.35;44.80;;;;;;;;;;1022203;28;20082;-74
2023/02/08 02:13:43;;;;;;;111.50;45.08;;;;;;;;;;1022469;28;20096;-73
2023/02/08 02:14:14;;;;;;;91.13;43.47;;;;;;;;;;1019233;29;20032;-74
2023/02/08 02:14:45;;;;;;;85.93;39.38;;;;;;;;;;1016749;29;20071;-74
2023/02/08 02:15:18;;;;;;;94.75;44.58;;;;;;;;;;1018445;28;20027;-73
2023/02/08 02:15:50;;;;;;;100.63;41.28;;;;;;;;;;1019345;28;20458;-73
2023/02/08 02:16:21;;;;;;;86.78;37.33;;;;;;;;;;1020891;28;20035;-73
2023/02/08 02:16:52;;;;;;;98.55;44.75;;;;;;;;;;1019091;29;20114;-74
2023/02/08 02:17:23;;;;;;;90.10;39.67;;;;;;;;;;1015616;29;20043;-74
2023/02/08 02:17:56;;;;;;;79.32;35.63;;;;;;;;;;1019065;29;20034;-74
2023/02/08 02:18:29;;;;;;;74.03;35.08;;;;;;;;;;1021760;28;20082;-74
2023/02/08 02:19:01;;;;;;;70.05;36.03;;;;;;;;;;1024852;28;20022;-73
2023/02/08 02:19:41;;;;;;;86.22;35.25;;;;;;;;;;1024893;28;20360;-75
2023/02/08 02:20:33;;;;;;;79.13;35.20;;;;;;;;;;1022828;28;20047;-73
2023/02/08 02:21:20;;;;;;;77.18;34.38;;;;;;;;;;1022636;29;20090;-74
2023/02/08 02:22:05;;;;;;;73.00;32.88;;;;;;;;;;1025946;28;20058;-73
2023/02/08 02:22:52;;;;;;;85.32;34.88;;;;;;;;;;1027363;28;20594;-74
2023/02/08 02:23:42;;;;;;;96.78;33.00;;;;;;;;;;1026767;28;20157;-73
2023/02/08 02:24:31;;;;;;;76.95;31.83;;;;;;;;;;1026234;28;20026;-73
2023/02/08 02:25:04;;;;;;;79.45;34.28;;;;;;;;;;1027533;28;20035;-73
2023/02/08 02:25:53;;;;;;;91.75;41.25;;;;;;;;;;1026276;28;20033;-73
2023/02/08 02:26:45;;;;;;;114.55;42.95;;;;;;;;;;1024949;28;20027;-73
2023/02/08 02:27:21;;;;;;;100.20;41.45;;;;;;;;;;1025550;28;20031;-74
2023/02/08 02:28:06;;;;;;;102.38;42.67;;;;;;;;;;1024497;28;20035;-74
2023/02/08 02:29:07;;;;;;;109.68;46.58;;;;;;;;;;1025025;28;20033;-74
2023/02/08 02:29:56;;;;;;;126.13;49.83;;;;;;;;;;1027760;28;20077;-74
2023/02/08 02:30:33;;;;;;;111.45;46.92;;;;;;;;;;1027789;28;20107;-73
2023/02/08 02:31:22;;;;;;;135.05;52.65;;;;;;;;;;1023674;28;20062;-72
2023/02/08 02:32:00;;;;;;;139.65;54.45;;;;;;;;;;1026023;28;20039;-73
2023/02/08 02:32:44;;;;;;;142.07;53.17;;;;;;;;;;1023224;28;20500;-74
2023/02/08 02:33:20;;;;;;;142.20;51.95;;;;;;;;;;1026211;28;20018;-73
2023/02/08 02:34:09;;;;;;;134.00;52.20;;;;;;;;;;1028322;28;20110;-72
2023/02/08 02:34:46;;;;;;;121.50;52.40;;;;;;;;;;1023323;28;20118;-73
2023/02/08 02:35:19;;;;;;;136.88;55.22;;;;;;;;;;1025851;28;20778;-73
2023/02/08 02:35:58;;;;;;;154.57;54.03;;;;;;;;;;1024902;28;20058;-73
2023/02/08 02:36:31;;;;;;;135.05;54.30;;;;;;;;;;1024290;28;20090;-73
2023/02/08 02:37:22;;;;;;;112.55;51.38;;;;;;;;;;1024993;28;20063;-73
2023/02/08 02:38:24;;;;;;;113.05;48.03;;;;;;;;;;1024817;28;20047;-73
2023/02/08 02:39:05;;;;;;;123.10;48.20;;;;;;;;;;1018582;28;20373;-73
2023/02/08 02:39:45;;;;;;;130.70;51.25;;;;;;;;;;1027089;28;20503;-73
2023/02/08 02:40:27;;;;;;;137.45;54.15;;;;;;;;;;1027132;28;20133;-73
2023/02/08 02:41:03;;;;;;;128.15;55.38;;;;;;;;;;1024674;28;20471;-74
2023/02/08 02:43:52;;;;;;;144.52;52.63;;;;;;;;;;1026060;28;20480;-73
2023/02/08 02:44:35;;;;;;;109.20;47.90;;;;;;;;;;1027688;28;20145;-73
2023/02/08 02:45:05;;;;;;;118.78;51.05;;;;;;;;;;1024945;28;20019;-74
2023/02/08 02:45:54;;;;;;;136.38;54.58;;;;;;;;;;1022174;28;20023;-73
2023/02/08 02:46:27;;;;;;;122.97;51.38;;;;;;;;;;1023393;28;20023;-74
2023/02/08 02:47:11;;;;;;;118.10;48.53;;;;;;;;;;1024590;28;20031;-74
2023/02/08 02:48:05;;;;;;;136.68;51.00;;;;;;;;;;1020329;29;20064;-74
2023/02/08 02:49:06;;;;;;;129.80;48.33;;;;;;;;;;1024604;28;20027;-73
2023/02/08 02:49:50;;;;;;;115.25;45.47;;;;;;;;;;1017142;29;20496;-73
2023/02/08 02:50:41;;;;;;;121.85;48.05;;;;;;;;;;1022283;28;20043;-73
2023/02/08 02:51:22;;;;;;;114.77;46.13;;;;;;;;;;1024921;28;20498;-72
2023/02/08 02:52:11;;;;;;;92.85;41.20;;;;;;;;;;1023944;28;20611;-73
2023/02/08 02:52:47;;;;;;;109.63;43.53;;;;;;;;;;1024643;28;20483;-74
2023/02/08 02:53:25;;;;;;;103.60;44.63;;;;;;;;;;1021723;28;20109;-72
2023/02/08 02:54:04;;;;;;;110.20;42.55;;;;;;;;;;1018202;28;20056;-72
2023/02/08 02:54:41;;;;;;;123.05;44.10;;;;;;;;;;1016897;29;20563;-73
2023/02/08 02:55:18;;;;;;;131.52;49.08;;;;;;;;;;1015922;29;20104;-73
2023/02/08 02:55:55;;;;;;;;;;;;;;;;;;1020408;29;20117;-73
2023/02/08 02:56:39;;;;;;;132.40;54.25;;;;;;;;;;1019938;29;19918;-73
2023/02/08 02:57:14;;;;;;;121.90;51.45;;;;;;;;;;1016472;29;20117;-74
2023/02/08 02:57:49;;;;;;;141.07;55.38;;;;;;;;;;1016534;29;20099;-74
2023/02/08 02:58:22;;;;;;;156.57;67.65;;;;;;;;;;1016729;29;20023;-73
2023/02/08 02:58:56;;;;;;;177.32;67.07;;;;;;;;;;1016735;29;20035;-73
2023/02/08 02:59:28;;;;;;;151.10;61.10;;;;;;;;;;1020811;29;20471;-73
2023/02/08 02:59:59;;;;;;;176.55;72.47;;;;;;;;;;1022996;28;20556;-73
2023/02/08 03:00:33;;;;;;;161.77;71.93;;;;;;;;;;1026055;28;20143;-73
2023/02/08 03:01:06;;;;;;;179.20;73.53;;;;;;;;;;1027766;28;20019;-74
2023/02/08 03:01:42;;;;;;;185.57;79.07;;;;;;;;;;1026185;28;20034;-74
2023/02/08 03:02:17;;;;;;;153.57;65.78;;;;;;;;;;1018623;28;20672;-74
2023/02/08 03:02:48;;;;;;;163.35;70.38;;;;;;;;;;1018255;28;20035;-73
2023/02/08 03:03:23;;;;;;;150.55;69.47;;;;;;;;;;1020346;28;20027;-74
2023/02/08 03:03:58;;;;;;;188.60;73.35;;;;;;;;;;1022944;28;20510;-74
2023/02/08 03:04:37;;;;;;;145.98;64.40;;;;;;;;;;1019459;29;20050;-73
2023/02/08 03:05:11;;;;;;;165.77;73.25;;;;;;;;;;1015831;29;20380;-73
2023/02/08 03:05:49;;;;;;;192.88;78.22;;;;;;;;;;1018626;29;20054;-74
2023/02/08 03:06:44;;;;;;;196.43;77.50;;;;;;;;;;1016033;29;20028;-73
2023/02/08 03:07:19;;;;;;;196.02;80.30;;;;;;;;;;1018441;28;20084;-73
2023/02/08 03:08:00;;;;;;;224.75;86.70;;;;;;;;;;1018718;29;20069;-74
2023/02/08 03:08:33;;;;;;;;;;;;;;;;;;1017720;29;20179;-75
2023/02/08 03:09:17;;;;;;;203.75;88.25;;;;;;;;;;1020456;28;19982;-75
2023/02/08 03:10:15;;;;;;;206.35;91.18;;;;;;;;;;1020999;28;20416;-74
2023/02/08 03:10:56;;;;;;;207.45;92.63;;;;;;;;;;1018588;28;20594;-74
2023/02/08 03:11:30;;;;;;;233.30;100.35;;;;;;;;;;1018056;29;20032;-74
2023/02/08 03:12:21;;;;;;;224.43;95.18;;;;;;;;;;1022176;28;20019;-74
2023/02/08 03:13:08;;;;;;;204.55;89.95;;;;;;;;;;1019815;29;20147;-74
2023/02/08 03:13:44;;;;;;;204.75;93.82;;;;;;;;;;1019587;28;20028;-74
2023/02/08 03:14:18;;;;;;;211.20;93.53;;;;;;;;;;1021944;29;20081;-75
2023/02/08 03:15:07;;;;;;;205.73;82.82;;;;;;;;;;1024471;28;20031;-74
2023/02/08 03:15:56;;;;;;;201.23;84.93;;;;;;;;;;1024381;28;20125;-73
2023/02/08 03:16:46;;;;;;;222.00;99.57;;;;;;;;;;1024492;28;20399;-74
2023/02/08 03:17:16;;;;;;;226.82;99.65;;;;;;;;;;1025171;28;20055;-73
2023/02/08 03:17:47;;;;;;;235.85;103.65;;;;;;;;;;1025662;28;20022;-73
2023/02/08 03:18:18;;;;;;;236.82;98.18;;;;;;;;;;1021497;28;20026;-73
2023/02/08 03:19:11;;;;;;;238.13;103.60;;;;;;;;;;1019995;28;20031;-73